Time;durP1;ratioP1;P1;durP2;ratioP2;P2;SDS_P1;SDS_P2;PMS_P1;PMS_P2;Temp;Humidity;BMP_temperature;BMP_pressure;BME280_temperature;BME280_humidity;BME280_pressure;Samples;Min_cycle;Max_cycle;Signal;HPM_P1;HPM_P2
2024/02/23 00:01:11;;;;;;;1.80;0.60;;;;;;;10.78;100.00;97938.19;5057128;28;20504;-67
2024/02/23 00:03:38;;;;;;;1.70;0.50;;;;;;;10.77;100.00;97923.09;5057314;28;20465;-67
2024/02/23 00:06:05;;;;;;;1.60;0.63;;;;;;;10.84;100.00;97920.47;5056597;28;21067;-67
2024/02/23 00:08:31;;;;;;;3.00;0.60;;;;;;;10.85;100.00;97932.88;5056868;28;20462;-67
2024/02/23 00:10:58;;;;;;;4.23;0.60;;;;;;;10.86;100.00;97929.00;5056636;28;21081;-67
2024/02/23 00:13:26;;;;;;;1.80;0.67;;;;;;;10.95;100.00;97944.19;5056942;28;20540;-67
2024/02/23 00:15:53;;;;;;;1.50;0.40;;;;;;;11.02;100.00;97939.66;5056944;28;20449;-67
2024/02/23 00:18:20;;;;;;;1.60;0.50;;;;;;;11.05;100.00;97943.53;5056752;28;20523;-67
2024/02/23 00:20:47;;;;;;;1.90;0.70;;;;;;;11.08;100.00;97934.69;5056739;28;20438;-67
2024/02/23 00:23:14;;;;;;;1.70;0.60;;;;;;;11.02;100.00;97928.81;5056257;28;21024;-67
2024/02/23 00:25:40;;;;;;;1.80;0.50;;;;;;;10.98;100.00;97930.72;5056597;28;20524;-67
2024/02/23 00:28:07;;;;;;;1.57;0.40;;;;;;;10.98;100.00;97924.50;5056629;28;20461;-67
2024/02/23 00:30:35;;;;;;;1.60;0.47;;;;;;;11.02;100.00;97926.13;5056274;28;20511;-67
2024/02/23 00:33:02;;;;;;;1.70;0.60;;;;;;;11.04;100.00;97931.16;5056693;28;20490;-67
2024/02/23 00:35:28;;;;;;;1.70;0.50;;;;;;;11.03;100.00;97932.31;5056732;28;20525;-67
2024/02/23 00:37:55;;;;;;;1.50;0.40;;;;;;;11.01;100.00;97929.19;5056476;28;20446;-67
2024/02/23 00:40:23;;;;;;;1.87;0.60;;;;;;;11.00;100.00;97922.19;5056854;28;20456;-67
2024/02/23 00:42:49;;;;;;;3.30;0.50;;;;;;;10.96;100.00;97937.63;5056845;28;20458;-67
2024/02/23 00:45:16;;;;;;;1.60;0.50;;;;;;;10.99;100.00;97934.19;5068975;22;20522;-71
2024/02/23 00:47:46;;;;;;;2.40;0.70;;;;;;;10.99;100.00;97929.56;5056139;28;20481;-71
2024/02/23 00:50:13;;;;;;;1.90;0.53;;;;;;;10.89;100.00;97927.50;5056031;28;20438;-71
2024/02/23 00:52:40;;;;;;;1.70;0.50;;;;;;;10.89;100.00;97938.34;5055961;28;21026;-71
2024/02/23 00:55:08;;;;;;;1.60;0.50;;;;;;;10.91;100.00;97946.88;5055691;28;20983;-71
2024/02/23 00:57:35;;;;;;;1.90;0.77;;;;;;;11.00;100.00;97966.31;5055982;28;20442;-72
2024/02/23 01:00:02;;;;;;;1.87;0.60;;;;;;;11.01;100.00;97975.22;5055851;28;20940;-71
2024/02/23 01:02:29;;;;;;;2.27;0.80;;;;;;;11.08;100.00;97972.63;5056102;28;20462;-72
2024/02/23 01:04:58;;;;;;;1.90;0.73;;;;;;;11.08;100.00;97972.63;5055891;28;20441;-72
2024/02/23 01:07:25;;;;;;;2.03;0.80;;;;;;;11.14;100.00;97962.22;5055877;28;21017;-71
2024/02/23 01:09:51;;;;;;;1.90;0.60;;;;;;;11.19;100.00;97984.34;5055763;28;20529;-71
2024/02/23 01:12:18;;;;;;;2.87;0.70;;;;;;;11.22;100.00;97986.31;5055551;28;20512;-71
2024/02/23 01:14:45;;;;;;;1.90;0.60;;;;;;;11.32;100.00;97993.78;5055669;28;20442;-71
2024/02/23 01:17:11;;;;;;;2.23;0.70;;;;;;;11.44;100.00;98005.53;5055670;28;20524;-71
2024/02/23 01:19:38;;;;;;;1.67;0.47;;;;;;;11.44;100.00;98000.13;5056050;28;20474;-71
2024/02/23 01:22:06;;;;;;;1.90;0.63;;;;;;;11.52;100.00;98023.47;5055339;28;20541;-71
2024/02/23 01:24:32;;;;;;;2.17;0.70;;;;;;;11.58;100.00;98021.97;5055505;28;20521;-71
2024/02/23 01:26:59;;;;;;;2.33;0.90;;;;;;;11.66;99.61;98022.84;5055409;28;20474;-71
2024/02/23 01:29:27;;;;;;;2.47;1.00;;;;;;;11.71;98.53;98025.97;5055720;28;20477;-71
2024/02/23 01:31:54;;;;;;;1.80;0.50;;;;;;;11.74;97.93;98029.91;5054885;28;20496;-71
2024/02/23 01:34:21;;;;;;;1.77;0.50;;;;;;;11.79;96.94;98040.41;5055629;28;20453;-70
2024/02/23 01:36:47;;;;;;;3.13;0.90;;;;;;;11.66;98.72;98045.31;5055125;28;20469;-70
2024/02/23 01:39:15;;;;;;;2.10;0.80;;;;;;;11.64;98.21;98044.88;5054901;28;20525;-70
2024/02/23 01:41:43;;;;;;;1.80;0.60;;;;;;;11.67;96.01;98063.13;5055452;28;20815;-71
2024/02/23 01:44:10;;;;;;;1.80;0.60;;;;;;;11.78;93.51;98068.69;5054902;28;20477;-71
2024/02/23 01:46:37;;;;;;;1.97;0.70;;;;;;;11.98;91.33;98066.59;5054806;28;20454;-71
2024/02/23 01:49:04;;;;;;;2.00;0.60;;;;;;;11.88;92.77;98094.38;5054972;28;20521;-71
2024/02/23 01:51:32;;;;;;;2.87;0.70;;;;;;;11.89;90.43;98099.44;5054786;28;20486;-70
2024/02/23 01:53:59;;;;;;;1.83;0.57;;;;;;;11.97;87.97;98111.16;5055147;28;20446;-71
2024/02/23 01:56:27;;;;;;;2.43;0.90;;;;;;;11.86;88.78;98119.97;5054614;28;20525;-71
2024/02/23 01:58:56;;;;;;;1.90;0.67;;;;;;;11.83;85.21;98120.69;5054647;28;21010;-71
2024/02/23 02:01:23;;;;;;;1.80;0.50;;;;;;;11.87;85.87;98142.44;5054767;28;20454;-71
2024/02/23 02:03:49;;;;;;;2.10;0.67;;;;;;;11.87;85.02;98161.44;5054856;28;20533;-71
2024/02/23 02:06:16;;;;;;;1.73;0.50;;;;;;;11.94;82.10;98158.78;5055027;28;20546;-71
2024/02/23 02:08:43;;;;;;;2.10;0.50;;;;;;;11.89;82.18;98171.91;5054822;28;20524;-70
2024/02/23 02:11:09;;;;;;;1.90;0.57;;;;;;;11.90;78.95;98185.06;5054482;28;20610;-71
2024/02/23 02:13:37;;;;;;;1.60;0.40;;;;;;;11.87;79.39;98196.69;5054124;28;20544;-71
2024/02/23 02:16:04;;;;;;;2.33;0.60;;;;;;;11.83;76.71;98202.06;5054445;28;20466;-71
2024/02/23 02:18:31;;;;;;;2.03;0.50;;;;;;;11.74;75.85;98209.66;5054448;28;20484;-71
2024/02/23 02:20:58;;;;;;;1.73;0.53;;;;;;;11.70;76.06;98214.25;5054574;28;20525;-71
2024/02/23 02:23:27;;;;;;;1.70;0.50;;;;;;;11.63;76.84;98225.75;5054288;28;20789;-71
2024/02/23 02:25:54;;;;;;;1.60;0.40;;;;;;;11.53;76.90;98236.47;5053967;28;20445;-72
2024/02/23 02:28:21;;;;;;;2.00;0.80;;;;;;;11.61;73.40;98257.91;5054225;28;20438;-72
2024/02/23 02:30:49;;;;;;;1.70;0.50;;;;;;;11.49;73.07;98270.88;5054161;28;21017;-72
2024/02/23 02:33:15;;;;;;;2.00;0.60;;;;;;;11.52;69.97;98275.56;5054107;28;20545;-70
2024/02/23 02:35:42;;;;;;;1.60;0.50;;;;;;;11.35;71.18;98296.59;5054257;28;20778;-68
2024/02/23 02:38:09;;;;;;;1.90;0.57;;;;;;;11.24;70.14;98289.44;5054091;28;20450;-68
2024/02/23 02:40:36;;;;;;;1.60;0.40;;;;;;;11.24;66.62;98306.47;5053942;28;20947;-69
2024/02/23 02:43:03;;;;;;;1.70;0.43;;;;;;;11.16;67.41;98318.34;5054310;28;20450;-70
2024/02/23 02:48:53;;;;;;;1.60;0.40;;;;;;;10.93;67.24;98345.41;5053663;28;20398;-70
2024/02/23 02:51:19;;;;;;;1.60;0.40;;;;;;;10.90;67.20;98337.22;5054147;28;20482;-69
2024/02/23 02:53:46;;;;;;;1.60;0.30;;;;;;;10.82;68.16;98312.72;5053855;28;20986;-67
2024/02/23 02:56:12;;;;;;;1.60;0.30;;;;;;;10.79;67.42;98340.50;5053997;28;20460;-67
2024/02/23 02:58:39;;;;;;;1.70;0.50;;;;;;;10.73;68.82;98336.50;5053761;28;20792;-67
2024/02/23 03:01:06;;;;;;;1.70;0.50;;;;;;;10.76;67.13;98343.16;5053771;28;20436;-69
2024/02/23 03:03:32;;;;;;;5.30;0.60;;;;;;;10.70;68.18;98353.47;5053950;28;20554;-69
2024/02/23 03:06:00;;;;;;;1.60;0.30;;;;;;;10.63;68.55;98345.22;5053626;28;20460;-69
2024/02/23 03:08:27;;;;;;;1.60;0.40;;;;;;;10.60;69.04;98352.13;5053429;28;20444;-70
2024/02/23 03:10:53;;;;;;;1.60;0.40;;;;;;;10.51;69.56;98362.38;5053531;28;20449;-67
2024/02/23 03:13:20;;;;;;;1.60;0.40;;;;;;;10.46;70.73;98359.16;5054196;28;20458;-68
2024/02/23 03:15:46;;;;;;;1.63;0.40;;;;;;;10.34;69.73;98374.38;5053345;28;20470;-69
2024/02/23 03:18:14;;;;;;;1.70;0.50;;;;;;;10.30;70.25;98362.69;5053501;28;20449;-69
2024/02/23 03:20:41;;;;;;;2.10;0.50;;;;;;;10.34;68.71;98379.00;5053490;28;20467;-70
2024/02/23 03:23:09;;;;;;;1.97;0.47;;;;;;;10.37;67.99;98385.66;5053591;28;20494;-68
2024/02/23 03:25:36;;;;;;;1.60;0.40;;;;;;;10.27;70.31;98373.44;5053773;28;20527;-67
2024/02/23 03:28:03;;;;;;;1.60;0.30;;;;;;;10.15;69.92;98379.72;5053332;28;20529;-67
2024/02/23 03:30:29;;;;;;;1.60;0.40;;;;;;;10.13;70.07;98379.28;5053693;28;20531;-67
2024/02/23 03:32:56;;;;;;;1.83;0.40;;;;;;;10.23;68.70;98396.91;5053305;28;20482;-70
2024/02/23 03:35:22;;;;;;;1.50;0.30;;;;;;;10.17;68.28;98390.19;5052994;28;20434;-70
2024/02/23 03:37:49;;;;;;;2.20;0.77;;;;;;;10.22;67.20;98409.63;5053657;28;20438;-68
2024/02/23 03:40:19;;;;;;;1.50;0.30;;;;;;;10.17;68.29;98414.53;5053299;28;20438;-67
2024/02/23 03:42:45;;;;;;;1.80;0.40;;;;;;;10.16;67.84;98412.97;5052867;28;20458;-68
2024/02/23 03:45:12;;;;;;;1.60;0.40;;;;;;;10.10;67.89;98413.25;5053140;28;20462;-67
2024/02/23 03:47:40;;;;;;;1.60;0.40;;;;;;;10.10;66.46;98418.66;5053300;28;20473;-69
2024/02/23 03:50:07;;;;;;;1.60;0.40;;;;;;;10.06;68.34;98427.84;5053457;28;20445;-70
2024/02/23 03:52:34;;;;;;;1.60;0.40;;;;;;;9.98;68.47;98431.50;5053143;28;20573;-69
2024/02/23 03:55:00;;;;;;;1.57;0.40;;;;;;;10.07;67.96;98440.22;5053133;28;20517;-70
2024/02/23 03:57:28;;;;;;;1.70;0.40;;;;;;;10.02;68.33;98445.88;5053089;28;20434;-70
2024/02/23 03:59:56;;;;;;;1.50;0.30;;;;;;;10.06;66.68;98463.00;5053541;28;20469;-68
2024/02/23 04:02:22;;;;;;;1.60;0.40;;;;;;;10.08;66.43;98463.41;5053021;28;20492;-67
2024/02/23 04:04:50;;;;;;;1.80;0.40;;;;;;;10.07;66.50;98462.63;5053183;28;20529;-67
2024/02/23 04:07:16;;;;;;;1.50;0.30;;;;;;;10.07;66.21;98475.38;5053055;28;20438;-71
2024/02/23 04:09:43;;;;;;;2.30;0.50;;;;;;;10.04;68.19;98474.16;5053011;28;20441;-70
2024/02/23 04:12:10;;;;;;;1.53;0.30;;;;;;;10.00;67.23;98483.31;5052849;28;20500;-70
2024/02/23 04:14:38;;;;;;;1.50;0.30;;;;;;;9.92;69.22;98506.69;5053404;28;20530;-70
2024/02/23 04:17:04;;;;;;;1.70;0.60;;;;;;;9.97;66.69;98489.44;5052946;28;20513;-70
2024/02/23 04:19:31;;;;;;;1.57;0.40;;;;;;;9.97;67.38;98503.72;5053880;28;20466;-70
2024/02/23 04:21:57;;;;;;;1.50;0.30;;;;;;;9.92;65.37;98514.03;5056559;28;20476;-70
2024/02/23 04:24:24;;;;;;;1.50;0.30;;;;;;;9.97;65.47;98521.88;5056660;28;20937;-70
2024/02/23 04:26:51;;;;;;;1.50;0.30;;;;;;;9.99;64.75;98512.28;5056751;28;20438;-70
2024/02/23 04:29:17;;;;;;;1.70;0.50;;;;;;;9.99;64.32;98523.09;5056212;28;20446;-70
2024/02/23 04:31:45;;;;;;;1.50;0.30;;;;;;;9.93;65.99;98518.31;5056363;28;20572;-70
2024/02/23 04:34:12;;;;;;;1.50;0.30;;;;;;;9.94;64.53;98544.19;5056694;28;20434;-70
2024/02/23 04:36:38;;;;;;;1.50;0.30;;;;;;;9.93;64.16;98542.63;5056349;28;20537;-71
2024/02/23 04:39:05;;;;;;;1.50;0.30;;;;;;;9.85;65.63;98550.56;5056410;28;20946;-71
2024/02/23 04:41:32;;;;;;;1.70;0.50;;;;;;;9.86;64.34;98546.72;5056236;28;20537;-70
2024/02/23 04:44:00;;;;;;;1.50;0.30;;;;;;;9.93;62.43;98564.28;5056181;28;20452;-71
2024/02/23 04:46:26;;;;;;;1.50;0.30;;;;;;;9.87;63.62;98561.00;5056258;28;20433;-70
2024/02/23 04:48:54;;;;;;;1.50;0.40;;;;;;;9.78;64.48;98577.41;5056523;28;20628;-70
2024/02/23 04:51:22;;;;;;;2.37;0.50;;;;;;;9.74;64.30;98592.75;5055821;28;20477;-70
2024/02/23 04:53:49;;;;;;;1.60;0.40;;;;;;;9.77;63.13;98616.38;5056192;28;20553;-70
2024/02/23 04:56:15;;;;;;;2.00;0.40;;;;;;;9.79;63.85;98607.94;5055713;28;20529;-71
2024/02/23 04:58:42;;;;;;;1.60;0.50;;;;;;;9.71;63.19;98623.16;5056309;28;20529;-70
2024/02/23 05:01:10;;;;;;;1.50;0.40;;;;;;;9.74;61.22;98632.50;5056164;28;20521;-70
2024/02/23 05:03:37;;;;;;;1.50;0.40;;;;;;;9.69;60.92;98638.16;5056328;28;20454;-70
2024/02/23 05:06:05;;;;;;;1.60;0.40;;;;;;;9.59;60.84;98664.53;5055851;28;20491;-71
2024/02/23 05:08:32;;;;;;;1.60;0.40;;;;;;;9.54;61.11;98650.47;5055462;28;20934;-70
2024/02/23 05:10:59;;;;;;;1.60;0.30;;;;;;;9.42;61.55;98639.69;5055406;28;20473;-70
2024/02/23 05:13:25;;;;;;;1.70;0.43;;;;;;;9.30;63.17;98662.91;5055563;28;20585;-70
2024/02/23 05:15:52;;;;;;;1.60;0.43;;;;;;;9.15;62.90;98677.09;5055661;28;20438;-70
2024/02/23 05:18:18;;;;;;;1.60;0.40;;;;;;;9.18;61.94;98670.22;5055415;28;20798;-71
2024/02/23 05:20:44;;;;;;;1.63;0.40;;;;;;;9.10;62.40;98683.50;5055357;28;20446;-70
2024/02/23 05:23:15;;;;;;;1.60;0.40;;;;;;;9.07;62.82;98683.38;5055185;28;20230;-70
2024/02/23 05:25:42;;;;;;;3.87;0.43;;;;;;;9.00;63.18;98692.06;5056025;28;20426;-71
2024/02/23 05:28:08;;;;;;;1.93;0.53;;;;;;;8.93;65.37;98693.75;5055911;28;20499;-70
2024/02/23 05:30:35;;;;;;;1.60;0.40;;;;;;;8.86;65.96;98707.03;5054937;28;20533;-69
2024/02/23 05:33:03;;;;;;;1.57;0.37;;;;;;;8.84;65.13;98707.34;5054592;28;21068;-71
2024/02/23 05:35:29;;;;;;;1.60;0.40;;;;;;;8.77;65.14;98699.81;5055069;28;20448;-70
2024/02/23 05:37:56;;;;;;;2.57;0.50;;;;;;;8.68;66.77;98723.41;5054992;28;20521;-69
2024/02/23 05:40:24;;;;;;;1.57;0.40;;;;;;;8.66;66.73;98731.03;5054946;28;20525;-69
2024/02/23 05:42:50;;;;;;;1.60;0.40;;;;;;;8.57;68.51;98749.22;5055095;28;20450;-69
2024/02/23 05:45:17;;;;;;;3.57;0.53;;;;;;;8.48;70.04;98745.81;5054791;28;20796;-69
2024/02/23 05:47:43;;;;;;;1.60;0.40;;;;;;;8.46;69.34;98748.09;5055160;28;20477;-70
2024/02/23 05:50:10;;;;;;;2.43;0.53;;;;;;;8.49;68.34;98763.59;5055123;28;20540;-69
2024/02/23 05:52:37;;;;;;;1.70;0.50;;;;;;;8.40;69.87;98776.38;5054212;28;20486;-69
2024/02/23 05:55:04;;;;;;;1.60;0.30;;;;;;;8.39;70.55;98770.19;5054302;28;20922;-70
2024/02/23 05:57:32;;;;;;;2.00;0.50;;;;;;;8.31;70.95;98769.09;5054557;28;20460;-70
2024/02/23 05:59:58;;;;;;;1.60;0.30;;;;;;;8.21;71.39;98774.13;5054115;28;20528;-70
2024/02/23 06:02:25;;;;;;;1.60;0.40;;;;;;;8.21;71.26;98777.59;5054608;28;20486;-69
2024/02/23 06:04:52;;;;;;;1.57;0.30;;;;;;;8.19;70.85;98781.75;5054708;28;20452;-69
2024/02/23 06:07:20;;;;;;;1.70;0.53;;;;;;;8.22;70.16;98802.66;5055005;28;20445;-69
2024/02/23 06:09:47;;;;;;;1.63;0.43;;;;;;;8.27;69.47;98814.03;5054373;28;20446;-69
2024/02/23 06:12:14;;;;;;;1.60;0.40;;;;;;;8.28;69.35;98818.34;5054472;28;20529;-69
2024/02/23 06:14:41;;;;;;;1.50;0.30;;;;;;;8.25;70.90;98816.28;5054524;28;20949;-69
2024/02/23 06:17:08;;;;;;;1.70;0.40;;;;;;;8.16;72.55;98826.34;5054736;28;20430;-70
2024/02/23 06:19:35;;;;;;;1.60;0.40;;;;;;;8.16;71.79;98847.13;5054740;28;20434;-69
2024/02/23 06:22:01;;;;;;;1.50;0.40;;;;;;;8.13;71.20;98859.34;5054750;28;20706;-69
2024/02/23 06:24:28;;;;;;;1.53;0.30;;;;;;;8.16;70.09;98861.41;5054707;28;20835;-67
2024/02/23 06:26:54;;;;;;;1.53;0.40;;;;;;;8.15;71.64;98850.97;5054307;28;20478;-67
2024/02/23 06:29:21;;;;;;;2.10;0.50;;;;;;;8.15;71.80;98865.22;5054219;28;20474;-70
2024/02/23 06:31:49;;;;;;;1.60;0.40;;;;;;;8.06;72.64;98869.88;5054358;28;20525;-70
2024/02/23 06:34:16;;;;;;;1.67;0.40;;;;;;;8.05;72.26;98869.06;5054098;28;20503;-70
2024/02/23 06:36:43;;;;;;;1.70;0.50;;;;;;;8.02;73.32;98869.75;5054185;28;20529;-70
2024/02/23 06:39:10;;;;;;;1.70;0.47;;;;;;;7.98;72.39;98874.22;5054111;28;20946;-69
2024/02/23 06:41:38;;;;;;;1.70;0.50;;;;;;;7.95;72.04;98879.44;5053646;28;20443;-69
2024/02/23 06:44:05;;;;;;;1.67;0.47;;;;;;;7.94;72.70;98889.44;5053003;28;20480;-71
2024/02/23 06:46:32;;;;;;;1.60;0.40;;;;;;;7.94;76.58;98897.53;5054357;28;20457;-71
2024/02/23 06:49:00;;;;;;;2.03;0.50;;;;;;;7.97;73.72;98893.38;5053853;28;20520;-71
2024/02/23 06:51:26;;;;;;;1.60;0.40;;;;;;;8.05;72.44;98911.44;5053916;28;20529;-70
2024/02/23 06:53:54;;;;;;;1.70;0.43;;;;;;;8.09;72.59;98902.34;5086032;22;20910;-65
2024/02/23 06:56:21;;;;;;;1.67;0.50;;;;;;;8.14;73.33;98908.69;5073885;28;20437;-66
2024/02/23 06:58:47;;;;;;;3.00;0.50;;;;;;;8.20;73.34;98927.06;5073546;28;20528;-66
2024/02/23 07:01:14;;;;;;;1.60;0.40;;;;;;;8.21;74.23;98920.53;5074127;28;20564;-66
2024/02/23 07:03:43;;;;;;;2.00;0.50;;;;;;;8.23;73.27;98906.72;5073714;28;20453;-66
2024/02/23 07:06:11;;;;;;;1.60;0.40;;;;;;;8.34;73.26;98935.69;5073913;28;20532;-66
2024/02/23 07:08:37;;;;;;;1.60;0.40;;;;;;;8.37;70.04;98928.91;5074099;28;20484;-66
2024/02/23 07:11:04;;;;;;;1.70;0.50;;;;;;;8.41;70.03;98934.41;5073643;28;20520;-66
2024/02/23 07:13:32;;;;;;;2.00;0.60;;;;;;;8.41;71.77;98940.63;5073419;28;20481;-66
2024/02/23 07:16:01;;;;;;;1.80;0.43;;;;;;;8.45;70.63;98946.13;5073945;28;20472;-68
2024/02/23 07:18:28;;;;;;;1.63;0.40;;;;;;;8.48;71.30;98940.09;5073934;28;20529;-65
2024/02/23 07:20:54;;;;;;;1.73;0.40;;;;;;;8.54;69.23;98949.56;5073474;28;20452;-65
2024/02/23 07:23:23;;;;;;;1.70;0.40;;;;;;;8.48;68.66;98956.28;5073362;28;20484;-65
2024/02/23 07:25:51;;;;;;;1.60;0.40;;;;;;;8.51;67.47;98963.72;5073499;28;20440;-66
2024/02/23 07:28:19;;;;;;;1.80;0.50;;;;;;;8.48;68.59;98970.56;5073468;28;20437;-65
2024/02/23 07:30:46;;;;;;;1.70;0.40;;;;;;;8.43;69.18;98967.28;5073101;28;20941;-64
2024/02/23 07:33:12;;;;;;;1.90;0.47;;;;;;;8.47;68.33;98970.91;5073531;28;20492;-64
2024/02/23 07:35:39;;;;;;;1.60;0.40;;;;;;;8.44;69.35;98968.84;5073021;28;20441;-64
2024/02/23 07:38:06;;;;;;;1.90;0.60;;;;;;;8.45;69.64;98967.72;5073549;28;20440;-64
2024/02/23 07:40:33;;;;;;;2.77;0.80;;;;;;;8.41;68.47;98964.09;5073421;28;20472;-64
2024/02/23 07:43:00;;;;;;;1.83;0.40;;;;;;;8.43;69.92;98957.25;5072940;28;20480;-64
2024/02/23 07:45:27;;;;;;;1.60;0.47;;;;;;;8.45;69.74;98967.72;5073269;28;20868;-64
2024/02/23 07:47:53;;;;;;;2.00;0.47;;;;;;;8.50;68.22;98964.81;5073217;28;20441;-64
2024/02/23 07:50:20;;;;;;;1.80;0.50;;;;;;;8.50;70.45;98971.03;5073222;28;20442;-64
2024/02/23 07:52:46;;;;;;;1.57;0.40;;;;;;;8.49;70.89;98974.06;5072979;28;20495;-63
2024/02/23 07:55:13;;;;;;;1.60;0.40;;;;;;;8.55;68.53;98986.25;5075684;28;20794;-63
2024/02/23 07:57:41;;;;;;;1.80;0.50;;;;;;;8.57;68.26;98992.09;5077546;28;20455;-63
2024/02/23 08:00:09;;;;;;;1.50;0.40;;;;;;;8.63;67.88;98993.47;5077115;28;20891;-63
2024/02/23 08:02:36;;;;;;;1.60;0.50;;;;;;;8.65;67.39;99012.06;5076657;28;20833;-63
2024/02/23 08:05:03;;;;;;;1.70;0.40;;;;;;;8.71;68.05;99016.94;5077002;28;20532;-63
2024/02/23 08:07:30;;;;;;;2.10;0.50;;;;;;;8.73;68.64;99019.31;5076630;28;21012;-63
2024/02/23 08:09:57;;;;;;;1.60;0.50;;;;;;;8.79;66.50;99040.38;5076874;28;20441;-63
2024/02/23 08:12:23;;;;;;;1.60;0.50;;;;;;;8.80;67.10;99038.47;5076434;28;20544;-63
2024/02/23 08:14:53;;;;;;;2.00;0.67;;;;;;;8.82;66.96;99031.66;5076407;28;20568;-63
2024/02/23 08:17:20;;;;;;;1.90;0.40;;;;;;;8.90;68.15;99042.69;5076421;28;20941;-63
2024/02/23 08:19:47;;;;;;;1.60;0.40;;;;;;;8.97;67.22;99046.47;5076781;28;20529;-63
2024/02/23 08:22:13;;;;;;;1.70;0.40;;;;;;;9.02;67.03;99042.78;5076620;28;20548;-63
2024/02/23 08:24:40;;;;;;;1.60;0.40;;;;;;;9.04;68.44;99041.34;5077098;28;20524;-65
2024/02/23 08:27:07;;;;;;;1.70;0.43;;;;;;;9.11;67.53;99054.31;5076237;28;20520;-66
2024/02/23 08:29:33;;;;;;;1.50;0.40;;;;;;;9.17;66.02;99058.41;5076561;28;20528;-67
2024/02/23 08:32:01;;;;;;;1.63;0.50;;;;;;;9.12;68.20;99061.31;5076451;28;20457;-65
2024/02/23 08:34:28;;;;;;;2.00;0.57;;;;;;;9.12;68.55;99064.03;5076090;28;21038;-65
2024/02/23 08:36:54;;;;;;;1.70;0.40;;;;;;;9.16;69.05;99056.81;5076292;28;20444;-65
2024/02/23 08:39:22;;;;;;;1.70;0.40;;;;;;;9.23;66.68;99056.31;5076642;28;20856;-65
2024/02/23 08:41:48;;;;;;;2.33;0.60;;;;;;;9.20;69.27;99065.06;5076272;28;20525;-65
2024/02/23 08:44:15;;;;;;;1.60;0.40;;;;;;;9.26;68.39;99064.53;5075934;28;20524;-65
2024/02/23 08:46:42;;;;;;;1.53;0.40;;;;;;;9.37;68.29;99072.25;5076480;28;20437;-65
2024/02/23 08:49:10;;;;;;;1.67;0.50;;;;;;;9.47;69.48;99082.66;5076142;28;20445;-65
2024/02/23 08:51:36;;;;;;;1.77;0.50;;;;;;;9.54;64.37;99072.09;5075937;28;20492;-65
2024/02/23 08:54:05;;;;;;;1.60;0.40;;;;;;;9.53;63.99;99084.06;5075633;28;20495;-65
2024/02/23 08:56:32;;;;;;;1.60;0.50;;;;;;;9.56;62.50;99083.38;5075919;28;20951;-65
2024/02/23 08:58:59;;;;;;;1.50;0.40;;;;;;;9.52;63.77;99083.25;5075730;28;21000;-65
2024/02/23 09:01:25;;;;;;;1.50;0.30;;;;;;;9.59;61.99;99091.59;5075913;28;20451;-65
2024/02/23 09:03:52;;;;;;;1.50;0.40;;;;;;;9.64;61.77;99089.81;5075701;28;20540;-65
2024/02/23 09:06:20;;;;;;;1.80;0.40;;;;;;;9.71;62.26;99093.59;5074993;28;20854;-65
2024/02/23 09:08:47;;;;;;;1.60;0.40;;;;;;;9.77;59.86;99102.28;5075835;28;20441;-65
2024/02/23 09:11:15;;;;;;;1.77;0.57;;;;;;;9.67;61.62;99091.88;5076147;28;20457;-65
2024/02/23 09:13:42;;;;;;;1.60;0.40;;;;;;;9.71;64.35;99099.00;5075617;28;20478;-65
2024/02/23 09:16:09;;;;;;;1.50;0.37;;;;;;;9.85;61.50;99093.31;5075417;28;20437;-65
2024/02/23 09:18:36;;;;;;;1.70;0.40;;;;;;;9.86;59.64;99092.97;5075572;28;20446;-65
2024/02/23 09:21:03;;;;;;;1.50;0.40;;;;;;;9.82;61.04;99105.56;5075591;28;20445;-64
2024/02/23 09:23:31;;;;;;;2.07;0.50;;;;;;;9.81;59.70;99105.91;5075714;28;20475;-64
2024/02/23 09:25:57;;;;;;;2.83;0.50;;;;;;;9.77;60.35;99111.19;5075207;28;20937;-64
2024/02/23 09:28:24;;;;;;;1.60;0.40;;;;;;;9.79;60.87;99111.66;5075148;28;20915;-64
2024/02/23 09:30:51;;;;;;;1.60;0.50;;;;;;;9.83;62.00;99112.56;5075946;28;20441;-64
2024/02/23 09:33:17;;;;;;;1.60;0.40;;;;;;;9.82;60.12;99115.59;5075159;28;20562;-65
2024/02/23 09:35:44;;;;;;;1.50;0.30;;;;;;;9.83;59.13;99115.28;5075760;28;20438;-65
2024/02/23 09:38:10;;;;;;;1.80;0.50;;;;;;;9.86;59.21;99116.50;5075488;28;20437;-65
2024/02/23 09:40:40;;;;;;;1.70;0.47;;;;;;;9.91;59.53;99123.63;5075325;28;20520;-65
2024/02/23 09:43:11;;;;;;;1.60;0.40;;;;;;;9.92;57.64;99128.72;5074756;28;20457;-65
2024/02/23 09:45:39;;;;;;;1.50;0.40;;;;;;;9.90;57.93;99146.38;5075122;28;20430;-66
2024/02/23 09:48:08;;;;;;;1.53;0.37;;;;;;;9.83;58.00;99147.72;5075094;28;20524;-64
2024/02/23 09:50:34;;;;;;;1.60;0.40;;;;;;;9.85;57.13;99155.50;5075062;28;20430;-64
2024/02/23 09:53:04;;;;;;;1.60;0.40;;;;;;;9.82;58.83;99151.53;5074573;28;20854;-64
2024/02/23 09:55:31;;;;;;;1.80;0.50;;;;;;;9.82;58.55;99178.56;5075242;28;20450;-64
2024/02/23 09:58:00;;;;;;;1.73;0.50;;;;;;;9.74;57.99;99176.75;5075205;28;20799;-65
2024/02/23 10:00:28;;;;;;;1.50;0.40;;;;;;;9.67;59.06;99183.81;5074777;28;20468;-64
2024/02/23 10:02:55;;;;;;;1.50;0.30;;;;;;;9.72;58.20;99173.56;5074757;28;20475;-64
2024/02/23 10:05:26;;;;;;;1.67;0.40;;;;;;;9.77;58.73;99181.47;5074765;28;20473;-66
2024/02/23 10:07:53;;;;;;;1.53;0.40;;;;;;;9.79;58.39;99168.44;5075143;28;20442;-66
2024/02/23 10:10:26;;;;;;;3.13;0.50;;;;;;;9.84;58.99;99157.41;5074691;28;20442;-66
2024/02/23 10:12:53;;;;;;;1.50;0.40;;;;;;;9.99;59.63;99168.75;5074745;28;20469;-66
2024/02/23 10:15:21;;;;;;;1.50;0.30;;;;;;;10.11;58.58;99171.50;5074527;28;20934;-66
2024/02/23 10:17:48;;;;;;;1.50;0.33;;;;;;;10.12;59.18;99186.59;5074294;28;20503;-66
2024/02/23 10:20:15;;;;;;;1.60;0.40;;;;;;;10.15;59.17;99182.47;5074328;28;20952;-66
2024/02/23 10:22:42;;;;;;;1.50;0.40;;;;;;;10.16;58.60;99179.41;5074653;28;20465;-66
2024/02/23 10:25:09;;;;;;;1.50;0.30;;;;;;;10.19;56.74;99177.97;5074819;28;20520;-66
2024/02/23 10:27:35;;;;;;;1.50;0.40;;;;;;;10.14;57.53;99186.25;5074104;28;20441;-66
2024/02/23 10:30:02;;;;;;;1.73;0.40;;;;;;;10.19;58.96;99175.25;5073997;28;20438;-66
2024/02/23 10:32:31;;;;;;;1.60;0.40;;;;;;;10.28;59.46;99182.19;5074271;28;20453;-67
2024/02/23 10:35:03;;;;;;;1.50;0.33;;;;;;;10.37;58.76;99189.44;5074471;28;20485;-66
2024/02/23 10:37:31;;;;;;;1.70;0.40;;;;;;;10.47;57.89;99189.00;5074750;28;20430;-66
2024/02/23 10:40:03;;;;;;;1.60;0.40;;;;;;;10.46;56.47;99182.03;5074762;28;20521;-66
2024/02/23 10:42:34;;;;;;;1.70;0.40;;;;;;;10.49;57.41;99187.56;5074690;28;20465;-67
2024/02/23 10:45:04;;;;;;;1.50;0.30;;;;;;;10.52;54.89;99178.75;5074786;28;20445;-66
2024/02/23 10:47:33;;;;;;;1.60;0.43;;;;;;;10.46;55.67;99188.22;5074136;28;20507;-66
2024/02/23 10:50:02;;;;;;;1.53;0.40;;;;;;;10.49;56.46;99197.56;5074278;28;20476;-66
2024/02/23 10:52:29;;;;;;;1.70;0.50;;;;;;;10.40;57.12;99192.25;5073677;28;20846;-66
2024/02/23 10:54:57;;;;;;;1.70;0.50;;;;;;;10.44;58.69;99195.09;5074260;28;20581;-66
2024/02/23 10:57:24;;;;;;;1.50;0.40;;;;;;;10.53;55.88;99190.38;5074154;28;20868;-66
2024/02/23 10:59:50;;;;;;;1.50;0.30;;;;;;;10.50;56.78;99191.06;5074471;28;20469;-67
2024/02/23 11:02:20;;;;;;;1.50;0.40;;;;;;;10.56;55.67;99192.41;5073744;28;20461;-66
2024/02/23 11:04:50;;;;;;;1.60;0.40;;;;;;;10.52;56.33;99191.50;5074322;28;20433;-66
2024/02/23 11:07:20;;;;;;;1.70;0.40;;;;;;;10.58;55.52;99199.09;5074097;28;20437;-66
2024/02/23 11:09:50;;;;;;;2.20;0.50;;;;;;;10.51;56.04;99195.34;5074081;28;20441;-66
2024/02/23 11:12:24;;;;;;;1.90;0.60;;;;;;;10.57;56.74;99189.38;5074124;28;20556;-66
2024/02/23 11:14:51;;;;;;;1.60;0.40;;;;;;;10.67;56.14;99190.88;5074462;28;20472;-68
2024/02/23 11:17:19;;;;;;;1.50;0.30;;;;;;;10.67;56.02;99185.47;5073943;28;20464;-67
2024/02/23 11:19:50;;;;;;;1.60;0.40;;;;;;;10.76;55.30;99190.78;5074038;28;20487;-67
2024/02/23 11:22:25;;;;;;;1.50;0.30;;;;;;;10.80;54.80;99197.91;5073854;28;20464;-67
2024/02/23 11:24:51;;;;;;;1.50;0.37;;;;;;;10.65;57.34;99190.41;5073763;28;20915;-67
2024/02/23 11:27:18;;;;;;;2.37;0.60;;;;;;;10.67;55.25;99204.41;5073314;28;20925;-67
2024/02/23 11:29:46;;;;;;;1.50;0.30;;;;;;;10.66;55.38;99202.81;5072926;28;20438;-67
2024/02/23 11:32:17;;;;;;;1.73;0.40;;;;;;;10.74;54.81;99212.75;5073403;28;20580;-67
2024/02/23 11:34:55;;;;;;;1.67;0.40;;;;;;;10.81;54.05;99226.56;5073592;28;20667;-67
2024/02/23 11:37:23;;;;;;;1.90;0.40;;;;;;;10.77;53.90;99214.03;5073569;28;20421;-67
2024/02/23 11:39:51;;;;;;;1.60;0.40;;;;;;;10.72;53.84;99215.03;5073492;28;20937;-67